Kriti II — SZQW — position and weather

sailwx.info

Track history (hours):
 
Tides and Currents Weather Stations Pressure Air Temp Water Temp Dewpoint Dewpoint Depression Visibility Wind Speed Wind Dir Waves Ship Positions

Kriti II

Last reported at 2018-Apr-23 20:18 UTC. Time now 2018-Apr-24 03:04 UTC.
Position N 37°20' E 023°52'.

Length 192 m; draft 7 m.

Type: Passenger vessel. MMSI: 237032000.

Date/timePositionNaut miles runAvg speedWind from/ knotsBaromVisibWave heightAir tempDewpointWater temp
2018-Apr-23 20:18N 37°20' E 023°52'620.5
2018-Apr-23 20:00N 37°26' E 023°49'1020.2
2018-Apr-23 19:31N 37°35' E 023°44'1019.9
2018-Apr-23 19:00N 37°44' E 023°39'1019.6
2018-Apr-23 18:30N 37°54' E 023°37'3 6.6
2018-Apr-23 18:00N 37°57' E 023°38'0 0.0
2018-Apr-23 17:30N 37°57' E 023°38'0 0.0
2018-Apr-23 17:00N 37°57' E 023°38'0 0.0
2018-Apr-23 16:30N 37°57' E 023°38'0 0.0
2018-Apr-23 16:00N 37°57' E 023°38'0 0.0
2018-Apr-23 15:30N 37°57' E 023°38'0 0.0
2018-Apr-23 15:00N 37°57' E 023°38'0 0.0
2018-Apr-23 14:29N 37°57' E 023°38'0 0.0
2018-Apr-23 13:59N 37°57' E 023°38'0 0.0
2018-Apr-23 13:29N 37°57' E 023°38'0 0.0
2018-Apr-23 12:59N 37°57' E 023°38'0 0.0
2018-Apr-23 12:29N 37°57' E 023°38'0 0.0
2018-Apr-23 11:59N 37°57' E 023°38'0 0.0
2018-Apr-23 11:29N 37°57' E 023°38'0 0.0
2018-Apr-23 10:59N 37°57' E 023°38'0 0.0
2018-Apr-23 10:29N 37°57' E 023°38'0 0.0
2018-Apr-23 09:59N 37°57' E 023°38'0 0.0
2018-Apr-23 09:29N 37°57' E 023°38'0 0.0
2018-Apr-23 08:59N 37°57' E 023°38'0 0.0
2018-Apr-23 08:29N 37°57' E 023°38'0 0.0
2018-Apr-23 07:59N 37°57' E 023°38'0 0.0
2018-Apr-23 07:29N 37°57' E 023°38'0 0.0
2018-Apr-23 06:59N 37°57' E 023°38'0 0.0
2018-Apr-23 06:26N 37°57' E 023°38'0 0.0
2018-Apr-23 05:59N 37°57' E 023°38'0 0.0
2018-Apr-23 05:30N 37°57' E 023°38'0 0.0
2018-Apr-23 05:00N 37°57' E 023°38'0 0.0
2018-Apr-23 04:30N 37°57' E 023°38'0 0.0
2018-Apr-23 04:00N 37°57' E 023°38'0 0.0
2018-Apr-23 03:30N 37°57' E 023°38'1 2.5
2018-Apr-23 03:00N 37°56' E 023°37'611.3
2018-Apr-23 02:30N 37°51' E 023°39'1019.3
2018-Apr-23 02:00N 37°42' E 023°45'1019.8
2018-Apr-23 01:30N 37°33' E 023°49'3 0.1
2018-Apr-21 19:39N 37°31' E 023°47'320.5
2018-Apr-21 19:31N 37°33' E 023°45'1020.1
2018-Apr-21 19:01N 37°43' E 023°41'1019.8
2018-Apr-21 18:30N 37°52' E 023°37'5 8.4
2018-Apr-21 17:56N 37°57' E 023°38'0 0.0
2018-Apr-21 17:29N 37°57' E 023°38'0 0.0
2018-Apr-21 16:56N 37°57' E 023°38'0 0.0
2018-Apr-21 16:26N 37°57' E 023°38'0 0.0
2018-Apr-21 15:59N 37°57' E 023°38'0 0.0
2018-Apr-21 15:29N 37°57' E 023°38'0 0.0
2018-Apr-21 15:00N 37°57' E 023°38'0 0.0
2018-Apr-21 14:30N 37°57' E 023°38'0 0.0
2018-Apr-21 14:00N 37°57' E 023°38'0 0.0
2018-Apr-21 13:30N 37°57' E 023°38'0 0.0
2018-Apr-21 13:00N 37°57' E 023°38'0 0.0
2018-Apr-21 12:30N 37°57' E 023°38'0 0.0
2018-Apr-21 12:00N 37°57' E 023°38'0 0.0
2018-Apr-21 11:30N 37°57' E 023°38'0 0.0
2018-Apr-21 10:51N 37°57' E 023°38'0 0.0
2018-Apr-21 10:30N 37°57' E 023°38'0 0.0
2018-Apr-21 09:57N 37°57' E 023°38'0 0.0
2018-Apr-21 09:29N 37°57' E 023°38'0 0.0
2018-Apr-21 08:59N 37°57' E 023°38'0 0.0
2018-Apr-21 08:29N 37°57' E 023°38'0 0.0
2018-Apr-21 07:59N 37°57' E 023°38'0 0.0
2018-Apr-21 07:29N 37°57' E 023°38'0 0.0
2018-Apr-21 06:59N 37°57' E 023°38'0 0.0
2018-Apr-21 06:29N 37°57' E 023°38'0 0.0
2018-Apr-21 06:01N 37°57' E 023°38'0 0.0
2018-Apr-21 05:30N 37°57' E 023°38'0 0.0
2018-Apr-21 05:01N 37°57' E 023°38'0 0.0
2018-Apr-21 04:31N 37°57' E 023°38'0 0.0
2018-Apr-21 04:01N 37°57' E 023°38'0 0.4
2018-Apr-21 03:31N 37°57' E 023°38'4 8.9
2018-Apr-21 03:01N 37°52' E 023°39'1019.6
2018-Apr-21 02:31N 37°43' E 023°44'1020.0
2018-Apr-21 02:00N 37°34' E 023°49'7 0.4
2018-Apr-20 06:51N 37°27' E 023°48'720.3
2018-Apr-20 06:30N 37°34' E 023°45'1020.3
2018-Apr-20 06:00N 37°43' E 023°40'1019.9
2018-Apr-20 05:31N 37°53' E 023°37'4 4.6
2018-Apr-20 04:35N 37°57' E 023°38'0 0.0
2018-Apr-20 04:29N 37°57' E 023°38'0 0.0
2018-Apr-20 03:59N 37°57' E 023°38'0 0.0
2018-Apr-20 03:29N 37°57' E 023°38'0 0.0
2018-Apr-20 02:59N 37°57' E 023°38'0 0.0
2018-Apr-20 02:29N 37°57' E 023°38'0 0.0
2018-Apr-20 01:59N 37°57' E 023°38'0 0.0
2018-Apr-20 01:29N 37°57' E 023°38'0 0.0
2018-Apr-20 00:59N 37°57' E 023°38'0 0.0
2018-Apr-20 00:29N 37°57' E 023°38'0 0.0
2018-Apr-19 23:59N 37°57' E 023°38'0 0.0
2018-Apr-19 23:05N 37°57' E 023°38'0 0.0
2018-Apr-19 22:53N 37°57' E 023°38'0 0.0
2018-Apr-19 22:29N 37°57' E 023°38'0 0.0
2018-Apr-19 21:59N 37°57' E 023°38'0 0.0
2018-Apr-19 21:29N 37°57' E 023°38'0 0.0
2018-Apr-19 20:59N 37°57' E 023°38'0 0.0
2018-Apr-19 20:26N 37°57' E 023°38'0 0.0
2018-Apr-19 19:59N 37°57' E 023°38'0 0.0
2018-Apr-19 19:26N 37°57' E 023°38'0 0.0
2018-Apr-19 18:59N 37°57' E 023°38'0 0.0
2018-Apr-19 18:23N 37°57' E 023°38'0 0.0
2018-Apr-19 17:56N 37°57' E 023°38'0 0.0
2018-Apr-19 17:26N 37°57' E 023°38'0 0.0
2018-Apr-19 16:56N 37°57' E 023°38'0 0.0
2018-Apr-19 16:26N 37°57' E 023°38'0 0.0
2018-Apr-19 15:59N 37°57' E 023°38'0 0.0
2018-Apr-19 15:30N 37°57' E 023°38'0 0.0
2018-Apr-19 14:58N 37°57' E 023°38'0 0.0
2018-Apr-19 14:28N 37°57' E 023°38'0 0.0
2018-Apr-19 13:46N 37°57' E 023°38'0 0.0
2018-Apr-19 13:28N 37°57' E 023°38'0 0.0
2018-Apr-19 12:58N 37°57' E 023°38'0 0.0
2018-Apr-19 12:22N 37°57' E 023°38'0 0.0
2018-Apr-19 11:55N 37°57' E 023°38'0 0.0
2018-Apr-19 11:28N 37°57' E 023°38'0 0.0
2018-Apr-19 10:55N 37°57' E 023°38'0 0.0
2018-Apr-19 10:28N 37°57' E 023°38'0 0.0
2018-Apr-19 09:58N 37°57' E 023°38'0 0.0
2018-Apr-19 09:28N 37°57' E 023°38'0 0.0
2018-Apr-19 08:58N 37°57' E 023°38'0 0.0
2018-Apr-19 08:25N 37°57' E 023°38'0 0.0
2018-Apr-19 07:54N 37°57' E 023°38'0 0.0
2018-Apr-19 07:27N 37°57' E 023°38'0 0.0
2018-Apr-19 06:57N 37°57' E 023°38'0 0.0
2018-Apr-19 06:30N 37°57' E 023°38'0 0.0
2018-Apr-19 05:57N 37°57' E 023°38'0 0.0
2018-Apr-19 05:30N 37°57' E 023°38'0 0.0
2018-Apr-19 05:00N 37°57' E 023°38'0 0.0
2018-Apr-19 04:30N 37°57' E 023°38'0 0.0
2018-Apr-19 04:00N 37°57' E 023°38'0 0.0
2018-Apr-19 03:30N 37°57' E 023°38'0 0.0
2018-Apr-19 03:00N 37°57' E 023°38'0 0.0
2018-Apr-19 02:30N 37°57' E 023°38'0 0.0
2018-Apr-19 02:00N 37°57' E 023°38'0 0.0
2018-Apr-19 01:30N 37°57' E 023°38'0 0.0
2018-Apr-19 01:00N 37°57' E 023°38'0 0.0
2018-Apr-19 00:30N 37°57' E 023°38'0 0.0
2018-Apr-19 00:00N 37°57' E 023°38'0 0.0
2018-Apr-18 23:30N 37°57' E 023°38'0 0.0
2018-Apr-18 23:00N 37°57' E 023°38'0 0.0
2018-Apr-18 22:30N 37°57' E 023°38'0 0.0
2018-Apr-18 22:00N 37°57' E 023°38'0 0.0
2018-Apr-18 21:30N 37°57' E 023°38'0 0.0
2018-Apr-18 21:00N 37°57' E 023°38'0 0.0
2018-Apr-18 20:30N 37°57' E 023°38'0 0.0
2018-Apr-18 20:00N 37°57' E 023°38'0 0.0
2018-Apr-18 19:30N 37°57' E 023°38'0 0.0
2018-Apr-18 19:00N 37°57' E 023°38'0 0.0
2018-Apr-18 18:30N 37°57' E 023°38'0 0.0
2018-Apr-18 18:00N 37°57' E 023°38'0 0.0
2018-Apr-18 17:30N 37°57' E 023°38'0 0.0
2018-Apr-18 17:00N 37°57' E 023°38'0 0.0
2018-Apr-18 16:30N 37°57' E 023°38'0 0.0
2018-Apr-18 15:56N 37°57' E 023°38'0 0.0
2018-Apr-18 15:30N 37°57' E 023°38'0 0.0
2018-Apr-18 14:59N 37°57' E 023°38'0 0.0
2018-Apr-18 14:29N 37°57' E 023°38'0 0.0
2018-Apr-18 13:59N 37°57' E 023°38'0 0.0
2018-Apr-18 13:29N 37°57' E 023°38'0 0.0
2018-Apr-18 12:59N 37°57' E 023°38'0 0.0
2018-Apr-18 12:29N 37°57' E 023°38'0 0.0
2018-Apr-18 11:59N 37°57' E 023°38'0 0.0
2018-Apr-18 11:26N 37°57' E 023°38'0 0.0
2018-Apr-18 10:59N 37°57' E 023°38'0 0.0
2018-Apr-18 10:26N 37°57' E 023°38'0 0.0
2018-Apr-18 09:59N 37°57' E 023°38'0 0.0
2018-Apr-18 09:29N 37°57' E 023°38'0 0.0
2018-Apr-18 08:59N 37°57' E 023°38'0 0.0
2018-Apr-18 08:29N 37°57' E 023°38'0 0.0
2018-Apr-18 07:59N 37°57' E 023°38'0 0.0
2018-Apr-18 07:29N 37°57' E 023°38'0 0.0
2018-Apr-18 07:00N 37°57' E 023°38'0 0.0
2018-Apr-18 06:30N 37°57' E 023°38'0 0.0
2018-Apr-18 06:00N 37°57' E 023°38'0 0.0
2018-Apr-18 05:30N 37°57' E 023°38'0 0.4
2018-Apr-18 05:00N 37°57' E 023°38'3 6.0
2018-Apr-18 04:30N 37°54' E 023°37'1019.0
2018-Apr-18 04:00N 37°45' E 023°43'1019.8
2018-Apr-18 03:30N 37°36' E 023°48'3 0.1
2018-Apr-16 19:40N 37°34' E 023°45'320.0
2018-Apr-16 19:30N 37°37' E 023°44'1019.8
2018-Apr-16 19:00N 37°46' E 023°39'1019.1
2018-Apr-16 18:30N 37°55' E 023°37'2 3.8
2018-Apr-16 17:59N 37°57' E 023°38'0 0.0
2018-Apr-16 17:29N 37°57' E 023°38'0 0.0
2018-Apr-16 16:59N 37°57' E 023°38'0 0.0
2018-Apr-16 16:29N 37°57' E 023°38'0 0.0
2018-Apr-16 15:59N 37°57' E 023°38'0 0.0
2018-Apr-16 15:29N 37°57' E 023°38'0 0.0
2018-Apr-16 14:59N 37°57' E 023°38'0 0.0
2018-Apr-16 14:29N 37°57' E 023°38'0 0.0
2018-Apr-16 13:59N 37°57' E 023°38'0 0.0
2018-Apr-16 13:29N 37°57' E 023°38'0 0.0
2018-Apr-16 12:59N 37°57' E 023°38'0 0.0
2018-Apr-16 12:29N 37°57' E 023°38'0 0.0
2018-Apr-16 11:59N 37°57' E 023°38'0 0.0
2018-Apr-16 11:26N 37°57' E 023°38'0 0.0
2018-Apr-16 10:59N 37°57' E 023°38'0 0.0
2018-Apr-16 10:29N 37°57' E 023°38'0 0.0
2018-Apr-16 09:59N 37°57' E 023°38'0 0.0
2018-Apr-16 09:28N 37°57' E 023°38'0 0.0
2018-Apr-16 08:58N 37°57' E 023°38'0 0.0
2018-Apr-16 08:28N 37°57' E 023°38'0 0.0
2018-Apr-16 07:58N 37°57' E 023°38'0 0.0
2018-Apr-16 07:28N 37°57' E 023°38'0 0.0
2018-Apr-16 06:58N 37°57' E 023°38'0 0.0
2018-Apr-16 06:28N 37°57' E 023°38'0 0.0
2018-Apr-16 05:58N 37°57' E 023°38'0 0.0
2018-Apr-16 05:22N 37°57' E 023°38'0 0.0
2018-Apr-16 05:00N 37°57' E 023°38'0 0.0
2018-Apr-16 04:30N 37°57' E 023°38'0 0.0
2018-Apr-16 03:57N 37°57' E 023°38'0 0.0
2018-Apr-16 03:29N 37°57' E 023°38'0 0.4
2018-Apr-16 03:01N 37°57' E 023°38'510.7
2018-Apr-16 02:30N 37°51' E 023°39'1320.0
2018-Apr-16 01:50N 37°39' E 023°46'719.8
2018-Apr-16 01:30N 37°33' E 023°49'2 0.1
2018-Apr-14 19:31N 37°32' E 023°46'120.2
2018-Apr-14 19:29N 37°33' E 023°46'919.9
2018-Apr-14 19:00N 37°42' E 023°41'1020.0
2018-Apr-14 18:31N 37°51' E 023°37'610.6
2018-Apr-14 17:58N 37°57' E 023°38'0 0.0
2018-Apr-14 16:37N 37°57' E 023°38'0 0.0
2018-Apr-14 16:10N 37°57' E 023°38'0 0.0
2018-Apr-14 15:52N 37°57' E 023°38'0 0.0
2018-Apr-14 15:25N 37°57' E 023°38'0 0.0
2018-Apr-14 14:58N 37°57' E 023°38'0 0.0
2018-Apr-14 14:28N 37°57' E 023°38'0 0.0
2018-Apr-14 13:49N 37°57' E 023°38'0 0.0
2018-Apr-14 13:28N 37°57' E 023°38'0 0.0
2018-Apr-14 12:58N 37°57' E 023°38'0 0.0
2018-Apr-14 12:16N 37°57' E 023°38'0 0.0
2018-Apr-14 11:55N 37°57' E 023°38'0 0.0
2018-Apr-14 11:28N 37°57' E 023°38'0 0.0
2018-Apr-14 10:43N 37°57' E 023°38'0 0.0
2018-Apr-14 10:28N 37°57' E 023°38'0 0.0
2018-Apr-14 09:58N 37°57' E 023°38'0 0.0
2018-Apr-14 09:28N 37°57' E 023°38'0 0.0
2018-Apr-14 08:40N 37°57' E 023°38'0 0.0
2018-Apr-14 08:22N 37°57' E 023°38'0 0.0
2018-Apr-14 07:06N 37°57' E 023°38'0 0.0
2018-Apr-14 07:00N 37°57' E 023°38'0 0.0
2018-Apr-14 06:24N 37°57' E 023°38'0 0.0
2018-Apr-14 06:00N 37°57' E 023°38'0 0.0
2018-Apr-14 05:30N 37°57' E 023°38'0 0.0
2018-Apr-14 05:00N 37°57' E 023°38'0 0.0
2018-Apr-14 03:54N 37°57' E 023°38'0 0.0
2018-Apr-14 03:30N 37°57' E 023°38'2 3.7
2018-Apr-14 03:00N 37°55' E 023°36'714.7
2018-Apr-14 02:30N 37°49' E 023°41'1120.3
2018-Apr-14 01:59N 37°39' E 023°46'  
Track history (hours):
 
Tides and Currents Weather Stations Pressure Air Temp Water Temp Dewpoint Dewpoint Depression Visibility Wind Speed Wind Dir Waves Ship Positions

Kriti II

Last reported at 2018-Apr-23 20:18 UTC. Time now 2018-Apr-24 03:04 UTC.
Position N 37°20' E 023°52'.

Length 192 m; draft 7 m.

Type: Passenger vessel. MMSI: 237032000.

Date/timePositionNaut miles runAvg speedWind from/ knotsBaromVisibWave heightAir tempDewpointWater temp
2018-Apr-23 20:18N 37°20' E 023°52'620.5
2018-Apr-23 20:00N 37°26' E 023°49'1020.2
2018-Apr-23 19:31N 37°35' E 023°44'1019.9
2018-Apr-23 19:00N 37°44' E 023°39'1019.6
2018-Apr-23 18:30N 37°54' E 023°37'3 6.6
2018-Apr-23 18:00N 37°57' E 023°38'0 0.0
2018-Apr-23 17:30N 37°57' E 023°38'0 0.0
2018-Apr-23 17:00N 37°57' E 023°38'0 0.0
2018-Apr-23 16:30N 37°57' E 023°38'0 0.0
2018-Apr-23 16:00N 37°57' E 023°38'0 0.0
2018-Apr-23 15:30N 37°57' E 023°38'0 0.0
2018-Apr-23 15:00N 37°57' E 023°38'0 0.0
2018-Apr-23 14:29N 37°57' E 023°38'0 0.0
2018-Apr-23 13:59N 37°57' E 023°38'0 0.0
2018-Apr-23 13:29N 37°57' E 023°38'0 0.0
2018-Apr-23 12:59N 37°57' E 023°38'0 0.0
2018-Apr-23 12:29N 37°57' E 023°38'0 0.0
2018-Apr-23 11:59N 37°57' E 023°38'0 0.0
2018-Apr-23 11:29N 37°57' E 023°38'0 0.0
2018-Apr-23 10:59N 37°57' E 023°38'0 0.0
2018-Apr-23 10:29N 37°57' E 023°38'0 0.0
2018-Apr-23 09:59N 37°57' E 023°38'0 0.0
2018-Apr-23 09:29N 37°57' E 023°38'0 0.0
2018-Apr-23 08:59N 37°57' E 023°38'0 0.0
2018-Apr-23 08:29N 37°57' E 023°38'0 0.0
2018-Apr-23 07:59N 37°57' E 023°38'0 0.0
2018-Apr-23 07:29N 37°57' E 023°38'0 0.0
2018-Apr-23 06:59N 37°57' E 023°38'0 0.0
2018-Apr-23 06:26N 37°57' E 023°38'0 0.0
2018-Apr-23 05:59N 37°57' E 023°38'0 0.0
2018-Apr-23 05:30N 37°57' E 023°38'0 0.0
2018-Apr-23 05:00N 37°57' E 023°38'0 0.0
2018-Apr-23 04:30N 37°57' E 023°38'0 0.0
2018-Apr-23 04:00N 37°57' E 023°38'0 0.0
2018-Apr-23 03:30N 37°57' E 023°38'1 2.5
2018-Apr-23 03:00N 37°56' E 023°37'611.3
2018-Apr-23 02:30N 37°51' E 023°39'1019.3
2018-Apr-23 02:00N 37°42' E 023°45'1019.8
2018-Apr-23 01:30N 37°33' E 023°49'3 0.1
2018-Apr-21 19:39N 37°31' E 023°47'320.5
2018-Apr-21 19:31N 37°33' E 023°45'1020.1
2018-Apr-21 19:01N 37°43' E 023°41'1019.8
2018-Apr-21 18:30N 37°52' E 023°37'5 8.4
2018-Apr-21 17:56N 37°57' E 023°38'0 0.0
2018-Apr-21 17:29N 37°57' E 023°38'0 0.0
2018-Apr-21 16:56N 37°57' E 023°38'0 0.0
2018-Apr-21 16:26N 37°57' E 023°38'0 0.0
2018-Apr-21 15:59N 37°57' E 023°38'0 0.0
2018-Apr-21 15:29N 37°57' E 023°38'0 0.0
2018-Apr-21 15:00N 37°57' E 023°38'0 0.0
2018-Apr-21 14:30N 37°57' E 023°38'0 0.0
2018-Apr-21 14:00N 37°57' E 023°38'0 0.0
2018-Apr-21 13:30N 37°57' E 023°38'0 0.0
2018-Apr-21 13:00N 37°57' E 023°38'0 0.0
2018-Apr-21 12:30N 37°57' E 023°38'0 0.0
2018-Apr-21 12:00N 37°57' E 023°38'0 0.0
2018-Apr-21 11:30N 37°57' E 023°38'0 0.0
2018-Apr-21 10:51N 37°57' E 023°38'0 0.0
2018-Apr-21 10:30N 37°57' E 023°38'0 0.0
2018-Apr-21 09:57N 37°57' E 023°38'0 0.0
2018-Apr-21 09:29N 37°57' E 023°38'0 0.0
2018-Apr-21 08:59N 37°57' E 023°38'0 0.0
2018-Apr-21 08:29N 37°57' E 023°38'0 0.0
2018-Apr-21 07:59N 37°57' E 023°38'0 0.0
2018-Apr-21 07:29N 37°57' E 023°38'0 0.0
2018-Apr-21 06:59N 37°57' E 023°38'0 0.0
2018-Apr-21 06:29N 37°57' E 023°38'0 0.0
2018-Apr-21 06:01N 37°57' E 023°38'0 0.0
2018-Apr-21 05:30N 37°57' E 023°38'0 0.0
2018-Apr-21 05:01N 37°57' E 023°38'0 0.0
2018-Apr-21 04:31N 37°57' E 023°38'0 0.0
2018-Apr-21 04:01N 37°57' E 023°38'0 0.4
2018-Apr-21 03:31N 37°57' E 023°38'4 8.9
2018-Apr-21 03:01N 37°52' E 023°39'1019.6
2018-Apr-21 02:31N 37°43' E 023°44'1020.0
2018-Apr-21 02:00N 37°34' E 023°49'7 0.4
2018-Apr-20 06:51N 37°27' E 023°48'720.3
2018-Apr-20 06:30N 37°34' E 023°45'1020.3
2018-Apr-20 06:00N 37°43' E 023°40'1019.9
2018-Apr-20 05:31N 37°53' E 023°37'4 4.6
2018-Apr-20 04:35N 37°57' E 023°38'0 0.0
2018-Apr-20 04:29N 37°57' E 023°38'0 0.0
2018-Apr-20 03:59N 37°57' E 023°38'0 0.0
2018-Apr-20 03:29N 37°57' E 023°38'0 0.0
2018-Apr-20 02:59N 37°57' E 023°38'0 0.0
2018-Apr-20 02:29N 37°57' E 023°38'0 0.0
2018-Apr-20 01:59N 37°57' E 023°38'0 0.0
2018-Apr-20 01:29N 37°57' E 023°38'0 0.0
2018-Apr-20 00:59N 37°57' E 023°38'0 0.0
2018-Apr-20 00:29N 37°57' E 023°38'0 0.0
2018-Apr-19 23:59N 37°57' E 023°38'0 0.0
2018-Apr-19 23:05N 37°57' E 023°38'0 0.0
2018-Apr-19 22:53N 37°57' E 023°38'0 0.0
2018-Apr-19 22:29N 37°57' E 023°38'0 0.0
2018-Apr-19 21:59N 37°57' E 023°38'0 0.0
2018-Apr-19 21:29N 37°57' E 023°38'0 0.0
2018-Apr-19 20:59N 37°57' E 023°38'0 0.0
2018-Apr-19 20:26N 37°57' E 023°38'0 0.0
2018-Apr-19 19:59N 37°57' E 023°38'0 0.0
2018-Apr-19 19:26N 37°57' E 023°38'0 0.0
2018-Apr-19 18:59N 37°57' E 023°38'0 0.0
2018-Apr-19 18:23N 37°57' E 023°38'0 0.0
2018-Apr-19 17:56N 37°57' E 023°38'0 0.0
2018-Apr-19 17:26N 37°57' E 023°38'0 0.0
2018-Apr-19 16:56N 37°57' E 023°38'0 0.0
2018-Apr-19 16:26N 37°57' E 023°38'0 0.0
2018-Apr-19 15:59N 37°57' E 023°38'0 0.0
2018-Apr-19 15:30N 37°57' E 023°38'0 0.0
2018-Apr-19 14:58N 37°57' E 023°38'0 0.0
2018-Apr-19 14:28N 37°57' E 023°38'0 0.0
2018-Apr-19 13:46N 37°57' E 023°38'0 0.0
2018-Apr-19 13:28N 37°57' E 023°38'0 0.0
2018-Apr-19 12:58N 37°57' E 023°38'0 0.0
2018-Apr-19 12:22N 37°57' E 023°38'0 0.0
2018-Apr-19 11:55N 37°57' E 023°38'0 0.0
2018-Apr-19 11:28N 37°57' E 023°38'0 0.0
2018-Apr-19 10:55N 37°57' E 023°38'0 0.0
2018-Apr-19 10:28N 37°57' E 023°38'0 0.0
2018-Apr-19 09:58N 37°57' E 023°38'0 0.0
2018-Apr-19 09:28N 37°57' E 023°38'0 0.0
2018-Apr-19 08:58N 37°57' E 023°38'0 0.0
2018-Apr-19 08:25N 37°57' E 023°38'0 0.0
2018-Apr-19 07:54N 37°57' E 023°38'0 0.0
2018-Apr-19 07:27N 37°57' E 023°38'0 0.0
2018-Apr-19 06:57N 37°57' E 023°38'0 0.0
2018-Apr-19 06:30N 37°57' E 023°38'0 0.0
2018-Apr-19 05:57N 37°57' E 023°38'0 0.0
2018-Apr-19 05:30N 37°57' E 023°38'0 0.0
2018-Apr-19 05:00N 37°57' E 023°38'0 0.0
2018-Apr-19 04:30N 37°57' E 023°38'0 0.0
2018-Apr-19 04:00N 37°57' E 023°38'0 0.0
2018-Apr-19 03:30N 37°57' E 023°38'0 0.0
2018-Apr-19 03:00N 37°57' E 023°38'0 0.0
2018-Apr-19 02:30N 37°57' E 023°38'0 0.0
2018-Apr-19 02:00N 37°57' E 023°38'0 0.0
2018-Apr-19 01:30N 37°57' E 023°38'0 0.0
2018-Apr-19 01:00N 37°57' E 023°38'0 0.0
2018-Apr-19 00:30N 37°57' E 023°38'0 0.0
2018-Apr-19 00:00N 37°57' E 023°38'0 0.0
2018-Apr-18 23:30N 37°57' E 023°38'0 0.0
2018-Apr-18 23:00N 37°57' E 023°38'0 0.0
2018-Apr-18 22:30N 37°57' E 023°38'0 0.0
2018-Apr-18 22:00N 37°57' E 023°38'0 0.0
2018-Apr-18 21:30N 37°57' E 023°38'0 0.0
2018-Apr-18 21:00N 37°57' E 023°38'0 0.0
2018-Apr-18 20:30N 37°57' E 023°38'0 0.0
2018-Apr-18 20:00N 37°57' E 023°38'0 0.0
2018-Apr-18 19:30N 37°57' E 023°38'0 0.0
2018-Apr-18 19:00N 37°57' E 023°38'0 0.0
2018-Apr-18 18:30N 37°57' E 023°38'0 0.0
2018-Apr-18 18:00N 37°57' E 023°38'0 0.0
2018-Apr-18 17:30N 37°57' E 023°38'0 0.0
2018-Apr-18 17:00N 37°57' E 023°38'0 0.0
2018-Apr-18 16:30N 37°57' E 023°38'0 0.0
2018-Apr-18 15:56N 37°57' E 023°38'0 0.0
2018-Apr-18 15:30N 37°57' E 023°38'0 0.0
2018-Apr-18 14:59N 37°57' E 023°38'0 0.0
2018-Apr-18 14:29N 37°57' E 023°38'0 0.0
2018-Apr-18 13:59N 37°57' E 023°38'0 0.0
2018-Apr-18 13:29N 37°57' E 023°38'0 0.0
2018-Apr-18 12:59N 37°57' E 023°38'0 0.0
2018-Apr-18 12:29N 37°57' E 023°38'0 0.0
2018-Apr-18 11:59N 37°57' E 023°38'0 0.0
2018-Apr-18 11:26N 37°57' E 023°38'0 0.0
2018-Apr-18 10:59N 37°57' E 023°38'0 0.0
2018-Apr-18 10:26N 37°57' E 023°38'0 0.0
2018-Apr-18 09:59N 37°57' E 023°38'0 0.0
2018-Apr-18 09:29N 37°57' E 023°38'0 0.0
2018-Apr-18 08:59N 37°57' E 023°38'0 0.0
2018-Apr-18 08:29N 37°57' E 023°38'0 0.0
2018-Apr-18 07:59N 37°57' E 023°38'0 0.0
2018-Apr-18 07:29N 37°57' E 023°38'0 0.0
2018-Apr-18 07:00N 37°57' E 023°38'0 0.0
2018-Apr-18 06:30N 37°57' E 023°38'0 0.0
2018-Apr-18 06:00N 37°57' E 023°38'0 0.0
2018-Apr-18 05:30N 37°57' E 023°38'0 0.4
2018-Apr-18 05:00N 37°57' E 023°38'3 6.0
2018-Apr-18 04:30N 37°54' E 023°37'1019.0
2018-Apr-18 04:00N 37°45' E 023°43'1019.8
2018-Apr-18 03:30N 37°36' E 023°48'3 0.1
2018-Apr-16 19:40N 37°34' E 023°45'320.0
2018-Apr-16 19:30N 37°37' E 023°44'1019.8
2018-Apr-16 19:00N 37°46' E 023°39'1019.1
2018-Apr-16 18:30N 37°55' E 023°37'2 3.8
2018-Apr-16 17:59N 37°57' E 023°38'0 0.0
2018-Apr-16 17:29N 37°57' E 023°38'0 0.0
2018-Apr-16 16:59N 37°57' E 023°38'0 0.0
2018-Apr-16 16:29N 37°57' E 023°38'0 0.0
2018-Apr-16 15:59N 37°57' E 023°38'0 0.0
2018-Apr-16 15:29N 37°57' E 023°38'0 0.0
2018-Apr-16 14:59N 37°57' E 023°38'0 0.0
2018-Apr-16 14:29N 37°57' E 023°38'0 0.0
2018-Apr-16 13:59N 37°57' E 023°38'0 0.0
2018-Apr-16 13:29N 37°57' E 023°38'0 0.0
2018-Apr-16 12:59N 37°57' E 023°38'0 0.0
2018-Apr-16 12:29N 37°57' E 023°38'0 0.0
2018-Apr-16 11:59N 37°57' E 023°38'0 0.0
2018-Apr-16 11:26N 37°57' E 023°38'0 0.0
2018-Apr-16 10:59N 37°57' E 023°38'0 0.0
2018-Apr-16 10:29N 37°57' E 023°38'0 0.0
2018-Apr-16 09:59N 37°57' E 023°38'0 0.0
2018-Apr-16 09:28N 37°57' E 023°38'0 0.0
2018-Apr-16 08:58N 37°57' E 023°38'0 0.0
2018-Apr-16 08:28N 37°57' E 023°38'0 0.0
2018-Apr-16 07:58N 37°57' E 023°38'0 0.0
2018-Apr-16 07:28N 37°57' E 023°38'0 0.0
2018-Apr-16 06:58N 37°57' E 023°38'0 0.0
2018-Apr-16 06:28N 37°57' E 023°38'0 0.0
2018-Apr-16 05:58N 37°57' E 023°38'0 0.0
2018-Apr-16 05:22N 37°57' E 023°38'0 0.0
2018-Apr-16 05:00N 37°57' E 023°38'0 0.0
2018-Apr-16 04:30N 37°57' E 023°38'0 0.0
2018-Apr-16 03:57N 37°57' E 023°38'0 0.0
2018-Apr-16 03:29N 37°57' E 023°38'0 0.4
2018-Apr-16 03:01N 37°57' E 023°38'510.7
2018-Apr-16 02:30N 37°51' E 023°39'1320.0
2018-Apr-16 01:50N 37°39' E 023°46'719.8
2018-Apr-16 01:30N 37°33' E 023°49'2 0.1
2018-Apr-14 19:31N 37°32' E 023°46'120.2
2018-Apr-14 19:29N 37°33' E 023°46'919.9
2018-Apr-14 19:00N 37°42' E 023°41'1020.0
2018-Apr-14 18:31N 37°51' E 023°37'610.6
2018-Apr-14 17:58N 37°57' E 023°38'0 0.0
2018-Apr-14 16:37N 37°57' E 023°38'0 0.0
2018-Apr-14 16:10N 37°57' E 023°38'0 0.0
2018-Apr-14 15:52N 37°57' E 023°38'0 0.0
2018-Apr-14 15:25N 37°57' E 023°38'0 0.0
2018-Apr-14 14:58N 37°57' E 023°38'0 0.0
2018-Apr-14 14:28N 37°57' E 023°38'0 0.0
2018-Apr-14 13:49N 37°57' E 023°38'0 0.0
2018-Apr-14 13:28N 37°57' E 023°38'0 0.0
2018-Apr-14 12:58N 37°57' E 023°38'0 0.0
2018-Apr-14 12:16N 37°57' E 023°38'0 0.0
2018-Apr-14 11:55N 37°57' E 023°38'0 0.0
2018-Apr-14 11:28N 37°57' E 023°38'0 0.0
2018-Apr-14 10:43N 37°57' E 023°38'0 0.0
2018-Apr-14 10:28N 37°57' E 023°38'0 0.0
2018-Apr-14 09:58N 37°57' E 023°38'0 0.0
2018-Apr-14 09:28N 37°57' E 023°38'0 0.0
2018-Apr-14 08:40N 37°57' E 023°38'0 0.0
2018-Apr-14 08:22N 37°57' E 023°38'0 0.0
2018-Apr-14 07:06N 37°57' E 023°38'0 0.0
2018-Apr-14 07:00N 37°57' E 023°38'0 0.0
2018-Apr-14 06:24N 37°57' E 023°38'0 0.0
2018-Apr-14 06:00N 37°57' E 023°38'0 0.0
2018-Apr-14 05:30N 37°57' E 023°38'0 0.0
2018-Apr-14 05:00N 37°57' E 023°38'0 0.0
2018-Apr-14 03:54N 37°57' E 023°38'0 0.0
2018-Apr-14 03:30N 37°57' E 023°38'2 3.7
2018-Apr-14 03:00N 37°55' E 023°36'714.7
2018-Apr-14 02:30N 37°49' E 023°41'1120.3
2018-Apr-14 01:59N 37°39' E 023°46'  

Dump ship's entire track history